Time;durP1;ratioP1;P1;durP2;ratioP2;P2;SDS_P1;SDS_P2;PMS_P1;PMS_P2;Temp;Humidity;BMP_temperature;BMP_pressure;BME280_temperature;BME280_humidity;BME280_pressure;Samples;Min_cycle;Max_cycle;Signal;HPM_P1;HPM_P2
2023/09/06 00:01:10;;;;;;;7.07;4.77;;;11.70;36.10;;;;;;5132324;27;46590;-78
2023/09/06 00:03:37;;;;;;;7.97;4.50;;;11.70;37.10;;;;;;5130209;27;46500;-78
2023/09/06 00:06:04;;;;;;;7.63;4.80;;;11.70;37.10;;;;;;5129388;27;46745;-78
2023/09/06 00:08:33;;;;;;;8.57;4.90;;;11.70;36.90;;;;;;5128711;27;46763;-79
2023/09/06 00:11:04;;;;;;;10.53;6.50;;;11.80;36.00;;;;;;5128838;27;46478;-78
2023/09/06 00:13:31;;;;;;;12.13;6.23;;;11.80;37.00;;;;;;5129031;27;46682;-79
2023/09/06 00:15:57;;;;;;;8.60;5.20;;;11.80;36.90;;;;;;5129957;27;46510;-79
2023/09/06 00:18:23;;;;;;;7.00;5.03;;;11.80;36.90;;;;;;5129529;27;46642;-77
2023/09/06 00:20:48;;;;;;;13.60;5.10;;;11.90;37.00;;;;;;5128944;27;46543;-78
2023/09/06 00:23:14;;;;;;;8.23;5.13;;;11.80;36.00;;;;;;5129216;27;46210;-78
2023/09/06 00:25:40;;;;;;;7.80;4.70;;;11.70;36.60;;;;;;5131432;27;46449;-78
2023/09/06 00:28:09;;;;;;;8.60;5.50;;;11.80;37.60;;;;;;5127304;27;46684;-80
2023/09/06 00:30:35;;;;;;;6.70;4.50;;;11.70;37.50;;;;;;5127553;27;46455;-80
2023/09/06 00:33:05;;;;;;;7.73;4.57;;;11.70;36.90;;;;;;5131234;27;46700;-79
2023/09/06 00:35:31;;;;;;;8.50;4.20;;;11.70;37.80;;;;;;5128771;27;45954;-79
2023/09/06 00:37:57;;;;;;;7.30;4.43;;;11.70;37.70;;;;;;5130842;27;46763;-79
2023/09/06 00:40:23;;;;;;;7.30;4.30;;;11.60;37.90;;;;;;5128991;27;46703;-80
2023/09/06 00:43:02;;;;;;;21.40;5.40;;;11.60;37.40;;;;;;5132222;27;47059;-80
2023/09/06 00:45:44;;;;;;;10.83;4.90;;;11.50;38.30;;;;;;5131675;27;46466;-80
2023/09/06 00:48:11;;;;;;;8.00;4.90;;;11.50;38.60;;;;;;5132190;27;46439;-82
2023/09/06 00:50:38;;;;;;;8.77;4.97;;;11.30;38.90;;;;;;5132302;27;45889;-81
2023/09/06 00:53:08;;;;;;;9.93;5.67;;;11.20;38.50;;;;;;5132523;27;45934;-79
2023/09/06 00:55:37;;;;;;;13.00;5.57;;;11.20;39.50;;;;;;5128669;27;46414;-79
2023/09/06 00:58:06;;;;;;;7.57;4.40;;;11.20;39.60;;;;;;5128354;27;46754;-79
2023/09/06 01:00:32;;;;;;;7.33;5.20;;;11.10;39.40;;;;;;5128635;27;46828;-78
2023/09/06 01:02:58;;;;;;;9.10;4.93;;;11.10;38.40;;;;;;5125404;27;46435;-78
2023/09/06 01:05:26;;;;;;;11.90;5.07;;;11.10;39.50;;;;;;5129932;27;46518;-79
2023/09/06 01:07:58;;;;;;;6.90;4.40;;;11.10;39.40;;;;;;5128495;27;46366;-80
2023/09/06 01:10:23;;;;;;;7.33;5.20;;;11.10;39.40;;;;;;5127761;27;46493;-80
2023/09/06 01:12:49;;;;;;;8.57;5.40;;;11.10;38.30;;;;;;5129239;27;46602;-78
2023/09/06 01:15:15;;;;;;;7.67;4.90;;;11.10;39.50;;;;;;5129021;27;46487;-79
2023/09/06 01:17:43;;;;;;;7.90;4.37;;;11.20;39.50;;;;;;5124570;27;46567;-79
2023/09/06 01:20:17;;;;;;;8.10;4.30;;;11.10;39.40;;;;;;5125435;27;47090;-80
2023/09/06 01:22:49;;;;;;;10.80;6.20;;;11.10;38.30;;;;;;5130635;27;46466;-79
2023/09/06 01:25:16;;;;;;;6.57;4.50;;;11.10;39.50;;;;;;5110115;27;46578;-78
2023/09/06 01:27:42;;;;;;;11.70;5.57;;;11.10;39.50;;;;;;5128166;27;47007;-77
2023/09/06 01:30:08;;;;;;;8.60;5.57;;;11.20;39.50;;;;;;5111592;27;46458;-77
2023/09/06 01:32:34;;;;;;;10.03;4.97;;;11.10;38.30;;;;;;5126823;27;47617;-78
2023/09/06 01:35:00;;;;;;;9.57;4.83;;;11.10;39.50;;;;;;5126003;27;46554;-79
2023/09/06 01:37:25;;;;;;;9.03;5.30;;;11.00;39.40;;;;;;5129129;27;47127;-80
2023/09/06 01:39:51;;;;;;;7.60;5.40;;;11.00;40.00;;;;;;5128792;27;46505;-79
2023/09/06 01:42:22;;;;;;;8.70;5.60;;;10.90;39.40;;;;;;5125831;27;46844;-77
2023/09/06 01:44:48;;;;;;;16.43;5.60;;;10.90;40.40;;;;;;5130234;27;46390;-80
2023/09/06 01:47:13;;;;;;;12.30;5.83;;;10.80;40.50;;;;;;5125377;27;47565;-81
2023/09/06 01:49:39;;;;;;;9.03;5.90;;;10.80;40.70;;;;;;5128872;27;46722;-82
2023/09/06 01:52:05;;;;;;;8.83;5.80;;;10.80;40.10;;;;;;5128607;27;45943;-80
2023/09/06 01:54:30;;;;;;;8.90;5.80;;;10.80;41.20;;;;;;5128993;27;46809;-79
2023/09/06 01:56:56;;;;;;;7.70;5.50;;;10.90;41.60;;;;;;5114147;27;48094;-81
2023/09/06 01:59:23;;;;;;;10.03;5.57;;;10.70;41.60;;;;;;5127312;27;46532;-79
2023/09/06 02:01:54;;;;;;;8.73;5.37;;;10.60;40.90;;;;;;5132173;27;46942;-79
2023/09/06 02:04:19;;;;;;;9.17;5.37;;;10.60;41.80;;;;;;5132342;27;46511;-77
2023/09/06 02:06:45;;;;;;;10.00;6.10;;;10.60;41.80;;;;;;5127486;27;46593;-79
2023/09/06 02:09:10;;;;;;;11.77;6.20;;;10.60;41.80;;;;;;5126450;27;46418;-79
2023/09/06 02:11:36;;;;;;;9.30;5.90;;;10.60;40.90;;;;;;5130807;27;45979;-80
2023/09/06 02:14:01;;;;;;;9.67;5.70;;;10.60;42.00;;;;;;5109979;27;46241;-77
2023/09/06 02:16:28;;;;;;;10.80;6.43;;;10.60;42.00;;;;;;5129014;27;47381;-77
2023/09/06 02:18:53;;;;;;;11.30;6.80;;;10.60;42.00;;;;;;5134325;27;46481;-79
2023/09/06 02:21:19;;;;;;;9.70;6.20;;;10.60;41.10;;;;;;5131778;27;46427;-79
2023/09/06 02:23:44;;;;;;;10.97;6.43;;;10.60;42.10;;;;;;5137094;27;46620;-80
2023/09/06 02:26:10;;;;;;;12.60;5.90;;;10.60;42.10;;;;;;5131166;27;47459;-80
2023/09/06 02:28:36;;;;;;;12.90;6.80;;;10.70;42.30;;;;;;5135085;27;46545;-81
2023/09/06 02:31:02;;;;;;;13.00;8.10;;;10.60;41.60;;;;;;5134754;27;46400;-79
2023/09/06 02:33:28;;;;;;;10.83;7.13;;;10.50;42.50;;;;;;5136379;27;47839;-79
2023/09/06 02:35:54;;;;;;;10.20;7.77;;;10.50;42.80;;;;;;5129864;27;47249;-77
2023/09/06 02:38:19;;;;;;;11.33;7.70;;;10.40;43.30;;;;;;5126768;27;46680;-79
2023/09/06 02:40:45;;;;;;;10.97;7.97;;;10.40;43.60;;;;;;5110529;27;46529;-78
2023/09/06 02:43:11;;;;;;;11.33;7.97;;;10.40;42.80;;;;;;5110111;27;47848;-79
2023/09/06 02:45:37;;;;;;;17.43;7.30;;;10.40;44.00;;;;;;5128349;27;46206;-79
2023/09/06 02:48:07;;;;;;;11.93;7.90;;;10.40;44.00;;;;;;5128298;27;46470;-79
2023/09/06 02:50:36;;;;;;;12.40;8.40;;;10.40;44.10;;;;;;5125990;27;46788;-78
2023/09/06 02:53:03;;;;;;;10.30;7.20;;;10.40;43.40;;;;;;5127447;27;46573;-78
2023/09/06 02:55:33;;;;;;;10.63;6.80;;;10.40;44.40;;;;;;5126736;27;46487;-77
2023/09/06 02:57:59;;;;;;;9.77;7.03;;;10.40;44.40;;;;;;5129874;27;46703;-76
2023/09/06 03:00:25;;;;;;;11.80;7.90;;;10.30;44.50;;;;;;5126256;27;45803;-77
2023/09/06 03:03:06;;;;;;;12.00;7.97;;;10.30;43.90;;;;;;5111699;27;46493;-76
2023/09/06 03:05:41;;;;;;;9.83;6.40;;;10.30;44.90;;;;;;5127594;27;47695;-78
2023/09/06 03:08:07;;;;;;;9.40;6.60;;;10.20;46.20;;;;;;5129831;27;46662;-77
2023/09/06 03:10:34;;;;;;;10.77;7.10;;;10.20;46.60;;;;;;5127271;27;45843;-77
2023/09/06 03:13:00;;;;;;;8.70;6.30;;;10.10;44.50;;;;;;5131519;27;46390;-77
2023/09/06 03:15:28;;;;;;;12.40;6.70;;;10.10;45.50;;;;;;5132973;27;46637;-77
2023/09/06 03:17:54;;;;;;;13.80;7.20;;;10.10;45.40;;;;;;5132473;27;46393;-79
2023/09/06 03:20:31;;;;;;;9.47;6.50;;;10.20;45.50;;;;;;5132743;27;46551;-77
2023/09/06 03:22:58;;;;;;;10.67;6.07;;;10.20;44.40;;;;;;5131660;27;46323;-77
2023/09/06 03:25:26;;;;;;;15.07;7.00;;;10.20;45.10;;;;;;5113738;27;47309;-77
2023/09/06 03:27:59;;;;;;;10.97;6.70;;;10.20;45.00;;;;;;5133388;27;46498;-78
2023/09/06 03:30:30;;;;;;;11.00;7.20;;;10.20;44.80;;;;;;5134527;27;45990;-76
2023/09/06 03:32:57;;;;;;;13.00;7.67;;;10.30;44.00;;;;;;5132049;27;46766;-79
2023/09/06 03:35:22;;;;;;;11.33;8.20;;;10.30;44.80;;;;;;5131572;27;46660;-78
2023/09/06 03:37:49;;;;;;;11.13;7.03;;;10.30;44.70;;;;;;5135631;27;46740;-76
2023/09/06 03:40:25;;;;;;;12.53;7.40;;;10.30;44.70;;;;;;5130538;27;46438;-77
2023/09/06 03:42:52;;;;;;;18.10;8.43;;;10.20;44.00;;;;;;5134059;27;46469;-79
2023/09/06 03:45:21;;;;;;;13.93;7.60;;;10.20;45.00;;;;;;5133743;27;46458;-78
2023/09/06 03:47:48;;;;;;;12.10;7.97;;;10.30;45.10;;;;;;5114258;27;46382;-77
2023/09/06 03:50:15;;;;;;;14.10;8.83;;;10.30;45.00;;;;;;5132821;27;46962;-77
2023/09/06 03:52:43;;;;;;;11.17;6.87;;;10.30;44.10;;;;;;5133127;27;46796;-77
2023/09/06 03:55:10;;;;;;;10.90;6.60;;;10.40;45.30;;;;;;5132007;27;46258;-77
2023/09/06 03:57:37;;;;;;;10.80;6.90;;;10.30;46.50;;;;;;5131999;27;46411;-78
2023/09/06 04:00:24;;;;;;;10.07;6.80;;;10.20;45.30;;;;;;5115639;27;46834;-77
2023/09/06 04:02:50;;;;;;;11.37;6.33;;;10.20;44.60;;;;;;5131379;27;46208;-79
2023/09/06 04:05:16;;;;;;;12.63;6.80;;;10.10;45.50;;;;;;5130803;27;46575;-78
2023/09/06 04:07:43;;;;;;;12.33;7.43;;;10.10;45.70;;;;;;5112033;27;46784;-77
2023/09/06 04:10:16;;;;;;;12.70;6.93;;;10.10;44.80;;;;;;5110953;27;46499;-78
2023/09/06 04:12:46;;;;;;;10.23;6.53;;;10.00;45.00;;;;;;5112959;27;46878;-78
2023/09/06 04:15:12;;;;;;;12.37;7.13;;;10.00;46.00;;;;;;5132123;27;46350;-78
2023/09/06 04:17:40;;;;;;;13.20;7.73;;;9.90;47.00;;;;;;5129916;27;47085;-78
2023/09/06 04:20:18;;;;;;;16.60;8.63;;;9.90;47.10;;;;;;5136620;27;46905;-80
2023/09/06 04:22:45;;;;;;;17.90;9.67;;;10.00;45.20;;;;;;5140095;27;46586;-79
2023/09/06 04:25:11;;;;;;;18.33;10.57;;;10.10;46.10;;;;;;5129670;27;46870;-80
2023/09/06 04:27:39;;;;;;;19.53;11.80;;;10.10;45.90;;;;;;5129839;27;46516;-79
2023/09/06 04:30:08;;;;;;;15.10;10.10;;;10.20;45.90;;;;;;5130220;27;46464;-79
2023/09/06 04:32:34;;;;;;;19.00;11.47;;;10.20;44.90;;;;;;5120590;27;46626;-78
2023/09/06 04:35:00;;;;;;;18.07;10.90;;;10.20;45.70;;;;;;5132496;27;46452;-77
2023/09/06 04:37:26;;;;;;;19.37;11.87;;;10.20;45.70;;;;;;5132685;27;46566;-78
2023/09/06 04:39:53;;;;;;;19.93;10.07;;;10.20;45.80;;;;;;5129605;27;46581;-79
2023/09/06 04:42:19;;;;;;;15.73;10.10;;;10.20;45.10;;;;;;5134013;27;46498;-78
2023/09/06 04:44:44;;;;;;;15.90;9.70;;;10.40;46.30;;;;;;5131120;27;46707;-78
2023/09/06 04:47:14;;;;;;;15.37;9.07;;;10.20;46.20;;;;;;5131488;27;46614;-77
2023/09/06 04:49:40;;;;;;;14.50;9.03;;;10.20;46.10;;;;;;5129870;27;46378;-77
2023/09/06 04:52:06;;;;;;;15.17;10.23;;;10.30;45.30;;;;;;5131342;27;46584;-79
2023/09/06 04:54:35;;;;;;;16.50;9.77;;;10.30;46.30;;;;;;5130163;27;47328;-77
2023/09/06 04:57:00;;;;;;;14.30;8.00;;;10.30;46.10;;;;;;5131115;27;46399;-77
2023/09/06 04:59:26;;;;;;;15.60;7.23;;;10.30;46.10;;;;;;5130535;27;46874;-78
2023/09/06 05:01:51;;;;;;;11.50;7.50;;;10.30;45.40;;;;;;5131130;27;46444;-78
2023/09/06 05:04:19;;;;;;;15.60;8.23;;;10.30;46.60;;;;;;5115835;27;48403;-78
2023/09/06 05:06:44;;;;;;;12.00;8.03;;;10.20;46.60;;;;;;5118383;27;46478;-78
2023/09/06 05:09:10;;;;;;;14.60;7.37;;;10.20;46.60;;;;;;5134526;27;46438;-77
2023/09/06 05:11:36;;;;;;;13.17;7.63;;;10.30;45.90;;;;;;5131262;27;46619;-78
2023/09/06 05:14:02;;;;;;;9.97;7.27;;;10.20;46.80;;;;;;5133929;27;46637;-78
2023/09/06 05:16:28;;;;;;;12.23;7.87;;;10.30;46.90;;;;;;5131562;27;46420;-78
2023/09/06 05:18:53;;;;;;;12.37;7.47;;;10.30;46.60;;;;;;5127585;27;45909;-77
2023/09/06 05:21:19;;;;;;;10.40;6.90;;;10.50;45.50;;;;;;5131585;27;46530;-78
2023/09/06 05:23:44;;;;;;;11.07;7.80;;;10.50;46.30;;;;;;5129734;27;46532;-78
2023/09/06 05:26:10;;;;;;;14.20;8.30;;;10.70;45.80;;;;;;5129390;27;46500;-78
2023/09/06 05:28:35;;;;;;;12.23;6.77;;;11.10;44.60;;;;;;5113595;27;46480;-77
2023/09/06 05:31:06;;;;;;;7.90;5.40;;;11.90;45.70;;;;;;5130388;27;46478;-78
2023/09/06 05:33:31;;;;;;;11.27;5.63;;;12.60;45.50;;;;;;5130515;27;47092;-79
2023/09/06 05:35:57;;;;;;;8.27;5.37;;;13.30;46.00;;;;;;5127465;27;46491;-79
2023/09/06 05:38:22;;;;;;;8.20;5.80;;;14.00;44.80;;;;;;5133443;27;46426;-77
2023/09/06 05:40:50;;;;;;;14.50;6.53;;;14.50;43.10;;;;;;5133095;27;46411;-78
2023/09/06 05:43:15;;;;;;;7.70;5.60;;;15.10;41.00;;;;;;5129969;27;46819;-78
2023/09/06 05:45:41;;;;;;;9.40;6.03;;;15.50;41.10;;;;;;5130903;27;46496;-78
2023/09/06 05:48:07;;;;;;;8.07;5.40;;;16.00;40.10;;;;;;5129199;27;46469;-76
2023/09/06 05:50:32;;;;;;;8.53;5.10;;;16.40;38.80;;;;;;5136324;27;45907;-79
2023/09/06 05:52:59;;;;;;;10.37;7.17;;;16.90;35.20;;;;;;5130257;27;47287;-79
2023/09/06 05:55:25;;;;;;;9.57;4.90;;;17.10;35.80;;;;;;5134081;27;47808;-79
2023/09/06 05:57:50;;;;;;;8.20;5.37;;;17.50;34.30;;;;;;5133885;27;46495;-79
2023/09/06 06:00:16;;;;;;;9.30;4.50;;;17.80;32.20;;;;;;5132975;27;46433;-79
2023/09/06 06:02:42;;;;;;;12.23;6.07;;;18.20;28.40;;;;;;5131007;27;46374;-79
2023/09/06 06:05:09;;;;;;;10.90;6.80;;;18.30;28.50;;;;;;5133532;27;46422;-80
2023/09/06 06:07:34;;;;;;;13.20;6.63;;;18.20;26.80;;;;;;5137333;27;46211;-80
2023/09/06 06:10:00;;;;;;;12.27;6.83;;;17.50;27.30;;;;;;5140621;27;47037;-79
2023/09/06 06:12:26;;;;;;;16.37;6.80;;;16.80;28.10;;;;;;5132232;27;47206;-81
2023/09/06 06:14:52;;;;;;;10.57;7.00;;;16.80;29.40;;;;;;5128499;27;46493;-76
2023/09/06 06:17:18;;;;;;;8.53;6.03;;;16.20;30.30;;;;;;5128861;27;46477;-79
2023/09/06 06:19:45;;;;;;;9.70;6.50;;;16.10;30.70;;;;;;5128395;27;46875;-78
2023/09/06 06:22:11;;;;;;;11.40;6.40;;;16.70;29.90;;;;;;5128575;27;46443;-78
2023/09/06 06:24:37;;;;;;;14.33;6.83;;;17.60;26.70;;;;;;5128805;27;46386;-79
2023/09/06 06:27:04;;;;;;;15.67;7.30;;;17.50;25.90;;;;;;5128744;27;46459;-80
2023/09/06 06:29:29;;;;;;;12.57;7.90;;;17.10;26.50;;;;;;5128866;27;46481;-78
2023/09/06 06:31:55;;;;;;;14.17;8.83;;;16.80;27.00;;;;;;5120714;27;47092;-78
2023/09/06 06:34:21;;;;;;;15.63;9.20;;;16.50;27.90;;;;;;5110664;27;46681;-77
2023/09/06 06:36:47;;;;;;;13.17;6.43;;;16.30;28.70;;;;;;5126113;27;46538;-79
2023/09/06 06:39:14;;;;;;;12.83;7.83;;;16.20;29.20;;;;;;5128367;27;46525;-80
2023/09/06 06:41:40;;;;;;;14.23;9.20;;;16.20;29.30;;;;;;5125378;27;46393;-80
2023/09/06 06:44:06;;;;;;;13.40;8.77;;;16.20;29.50;;;;;;5129986;27;46733;-81
2023/09/06 06:46:33;;;;;;;19.37;8.70;;;16.30;30.00;;;;;;5129327;27;46218;-81
2023/09/06 06:49:01;;;;;;;14.13;9.10;;;16.30;31.20;;;;;;5133065;27;46494;-79
2023/09/06 06:51:28;;;;;;;13.90;8.90;;;16.30;29.70;;;;;;5131245;27;46714;-81
2023/09/06 06:53:54;;;;;;;12.50;8.00;;;16.30;29.70;;;;;;5120438;27;46857;-80
2023/09/06 06:56:21;;;;;;;12.87;8.60;;;16.50;30.80;;;;;;5132317;27;46404;-79
2023/09/06 06:58:48;;;;;;;17.40;9.00;;;16.40;30.70;;;;;;5132613;27;46780;-79
2023/09/06 07:01:14;;;;;;;15.53;9.23;;;16.70;30.00;;;;;;5130857;27;47278;-81
2023/09/06 07:03:40;;;;;;;15.50;8.50;;;16.60;30.90;;;;;;5132806;27;46631;-80
2023/09/06 07:06:09;;;;;;;13.77;9.37;;;16.90;29.80;;;;;;5135897;27;45929;-80
2023/09/06 07:08:35;;;;;;;14.10;8.80;;;16.90;30.50;;;;;;5134301;27;46543;-79
2023/09/06 07:11:03;;;;;;;15.10;8.80;;;17.00;30.20;;;;;;5133210;27;46714;-79
2023/09/06 07:13:29;;;;;;;15.93;9.00;;;17.10;29.30;;;;;;5114267;27;47651;-80
2023/09/06 07:15:55;;;;;;;15.93;8.50;;;17.20;29.30;;;;;;5135430;27;45936;-79
2023/09/06 07:18:21;;;;;;;20.00;8.77;;;17.20;30.00;;;;;;5130573;27;46685;-79
2023/09/06 07:20:47;;;;;;;13.27;9.00;;;17.30;29.80;;;;;;5109607;27;47341;-79
2023/09/06 07:23:13;;;;;;;13.53;9.13;;;17.40;29.20;;;;;;5131321;27;46285;-79
2023/09/06 07:25:39;;;;;;;16.63;9.13;;;;;;;;;;5134868;27;45864;-77
2023/09/06 07:28:05;;;;;;;12.43;8.13;;;17.60;29.10;;;;;;5133564;27;46581;-78
2023/09/06 07:30:32;;;;;;;15.20;8.23;;;17.90;29.60;;;;;;5113405;27;47994;-80
2023/09/06 07:32:58;;;;;;;15.60;8.60;;;18.10;28.20;;;;;;5113641;27;46651;-80
2023/09/06 07:35:23;;;;;;;13.00;8.80;;;18.20;28.80;;;;;;5119431;27;46470;-81
2023/09/06 07:37:49;;;;;;;11.33;7.73;;;18.30;28.60;;;;;;5130608;27;46491;-81
2023/09/06 07:40:15;;;;;;;14.47;9.50;;;18.40;28.70;;;;;;5132300;27;47904;-80
2023/09/06 07:42:40;;;;;;;13.67;9.00;;;18.50;28.30;;;;;;5131688;27;46545;-76
2023/09/06 07:45:07;;;;;;;16.00;9.57;;;19.20;28.60;;;;;;5132879;27;46491;-80
2023/09/06 07:47:33;;;;;;;14.20;8.90;;;18.60;27.90;;;;;;5135686;27;46979;-81
2023/09/06 07:49:59;;;;;;;14.97;8.20;;;18.50;28.40;;;;;;5132892;27;47041;-81
2023/09/06 07:52:24;;;;;;;12.70;8.23;;;18.70;27.50;;;;;;5124385;27;46497;-80
2023/09/06 07:54:50;;;;;;;14.80;9.23;;;18.70;28.10;;;;;;5132347;27;46460;-78
2023/09/06 07:57:16;;;;;;;12.87;9.30;;;18.80;27.90;;;;;;5140810;27;46399;-80
2023/09/06 07:59:41;;;;;;;13.90;8.40;;;18.80;27.80;;;;;;5140107;27;47032;-79
2023/09/06 08:02:07;;;;;;;12.30;8.70;;;18.90;26.80;;;;;;5112688;27;45892;-79
2023/09/06 08:04:33;;;;;;;12.70;8.30;;;18.90;27.50;;;;;;5133746;27;46767;-78
2023/09/06 08:06:59;;;;;;;15.17;8.93;;;19.10;27.70;;;;;;5113114;27;46734;-78
2023/09/06 08:09:24;;;;;;;13.50;9.80;;;19.10;26.80;;;;;;5113533;27;47198;-80
2023/09/06 08:11:50;;;;;;;11.97;8.17;;;19.00;27.50;;;;;;5128458;27;46453;-80
2023/09/06 08:14:15;;;;;;;10.70;8.57;;;19.00;27.80;;;;;;5115131;27;46556;-80
2023/09/06 08:16:41;;;;;;;15.60;9.33;;;19.10;27.60;;;;;;5136229;27;47150;-81
2023/09/06 08:19:07;;;;;;;12.40;7.80;;;19.30;27.40;;;;;;5134789;27;46558;-82
2023/09/06 08:21:34;;;;;;;14.90;8.70;;;19.50;27.10;;;;;;5133775;27;47314;-82
2023/09/06 08:24:02;;;;;;;13.70;8.20;;;19.40;26.70;;;;;;5114040;27;46858;-81
2023/09/06 08:26:27;;;;;;;16.00;8.57;;;19.40;27.40;;;;;;5117052;27;46421;-82
2023/09/06 08:28:53;;;;;;;13.73;7.20;;;19.50;26.60;;;;;;5117950;27;48186;-79
2023/09/06 08:31:19;;;;;;;47.33;15.93;;;19.60;26.30;;;;;;5133723;27;46462;-81
2023/09/06 08:33:44;;;;;;;18.53;9.40;;;19.70;27.20;;;;;;5114972;27;46541;-84
2023/09/06 08:36:11;;;;;;;15.73;9.30;;;19.80;27.90;;;;;;5135791;27;46564;-81
2023/09/06 08:38:37;;;;;;;15.33;8.53;;;19.80;27.00;;;;;;5114999;27;47170;-82
2023/09/06 08:41:04;;;;;;;16.60;8.40;;;19.80;26.40;;;;;;5111909;27;46907;-81
2023/09/06 08:43:40;;;;;;;11.37;7.53;;;19.90;26.00;;;;;;5131623;27;46377;-80
2023/09/06 08:46:25;;;;;;;14.53;7.90;;;20.10;25.90;;;;;;5131856;27;45836;-81
2023/09/06 08:48:52;;;;;;;13.13;8.20;;;20.20;26.50;;;;;;5112351;27;48484;-80
2023/09/06 08:51:20;;;;;;;14.50;7.53;;;20.10;25.90;;;;;;5131822;27;45943;-81
2023/09/06 08:53:48;;;;;;;14.80;7.93;;;20.20;25.90;;;;;;5132936;27;46552;-82
2023/09/06 08:56:17;;;;;;;16.83;8.10;;;20.20;26.60;;;;;;5120143;27;46155;-83
2023/09/06 08:58:43;;;;;;;14.07;8.93;;;20.30;26.50;;;;;;5117686;27;48014;-82
2023/09/06 09:01:09;;;;;;;17.00;8.20;;;20.50;25.40;;;;;;5134430;27;46581;-82
2023/09/06 09:03:34;;;;;;;23.80;9.87;;;20.50;26.30;;;;;;5131654;27;46797;-82
2023/09/06 09:06:06;;;;;;;12.23;8.40;;;20.60;25.50;;;;;;5132026;27;46988;-81
2023/09/06 09:08:32;;;;;;;12.87;8.03;;;20.60;26.20;;;;;;5132197;27;46712;-81
2023/09/06 09:11:09;;;;;;;11.30;7.07;;;20.60;26.10;;;;;;5128811;27;45837;-80
2023/09/06 09:13:35;;;;;;;12.00;8.50;;;20.60;25.30;;;;;;5130154;27;46787;-79
2023/09/06 09:16:08;;;;;;;13.37;7.73;;;20.60;26.20;;;;;;5128141;27;46590;-80
2023/09/06 09:18:36;;;;;;;13.47;6.70;;;20.60;26.30;;;;;;5129666;27;47782;-81
2023/09/06 09:21:05;;;;;;;12.20;7.43;;;20.80;26.20;;;;;;5110119;27;46501;-84
2023/09/06 09:23:32;;;;;;;8.87;6.17;;;20.90;25.20;;;;;;5112273;27;46798;-85
2023/09/06 09:25:58;;;;;;;16.97;5.77;;;21.10;25.00;;;;;;5128766;27;46818;-83
2023/09/06 09:28:23;;;;;;;14.17;8.10;;;21.30;25.50;;;;;;5128346;27;46908;-79
2023/09/06 09:30:51;;;;;;;13.20;7.30;;;21.50;25.10;;;;;;5130711;27;47073;-79
2023/09/06 09:33:16;;;;;;;12.37;7.00;;;21.60;24.10;;;;;;5128440;27;46445;-81
2023/09/06 09:35:43;;;;;;;10.83;7.00;;;21.90;24.80;;;;;;5111537;27;46735;-80
2023/09/06 09:38:13;;;;;;;11.60;7.97;;;21.80;24.80;;;;;;5132430;27;46312;-82
2023/09/06 09:40:38;;;;;;;11.83;8.10;;;21.60;25.00;;;;;;5132271;27;47387;-83
2023/09/06 09:43:05;;;;;;;13.17;7.40;;;21.50;24.40;;;;;;5135621;27;46483;-80
2023/09/06 09:45:40;;;;;;;9.83;6.63;;;22.30;25.90;;;;;;5119478;27;46487;-84
2023/09/06 09:48:07;;;;;;;13.00;7.60;;;21.70;25.00;;;;;;5135056;27;46521;-79
2023/09/06 09:50:35;;;;;;;13.00;7.30;;;21.90;25.00;;;;;;5128351;27;46589;-84
2023/09/06 09:53:03;;;;;;;10.40;6.77;;;21.70;24.10;;;;;;5128210;27;46438;-83
2023/09/06 09:55:32;;;;;;;8.77;6.50;;;21.70;24.30;;;;;;5109763;27;46644;-82
2023/09/06 09:58:06;;;;;;;10.43;6.97;;;21.70;25.10;;;;;;5128753;27;46956;-83
2023/09/06 10:00:33;;;;;;;9.70;6.30;;;21.80;24.90;;;;;;5118240;27;45878;-82
2023/09/06 10:03:00;;;;;;;14.00;6.90;;;21.80;24.10;;;;;;5128015;27;47037;-82
2023/09/06 10:05:27;;;;;;;19.50;7.70;;;22.60;25.40;;;;;;5128830;27;46839;-81
2023/09/06 10:07:56;;;;;;;11.57;6.70;;;22.10;24.50;;;;;;5127548;27;46412;-78
2023/09/06 10:10:27;;;;;;;8.80;6.47;;;22.00;24.30;;;;;;5110388;27;45876;-83
2023/09/06 10:12:53;;;;;;;13.43;6.43;;;22.00;23.40;;;;;;5128593;27;46396;-81
2023/09/06 10:15:20;;;;;;;9.07;6.30;;;22.10;24.00;;;;;;5116633;27;45890;-81
2023/09/06 10:17:50;;;;;;;14.17;6.73;;;22.30;23.20;;;;;;5131686;27;46971;-80
2023/09/06 10:20:16;;;;;;;12.03;6.70;;;22.50;24.20;;;;;;5110662;27;47269;-80
2023/09/06 10:22:43;;;;;;;10.53;6.23;;;22.50;23.00;;;;;;5127469;27;47523;-81
2023/09/06 10:25:10;;;;;;;7.53;5.40;;;22.90;24.00;;;;;;5126723;27;46543;-84
2023/09/06 10:27:45;;;;;;;11.27;6.90;;;22.70;23.60;;;;;;5129280;27;46784;-81
2023/09/06 10:30:17;;;;;;;9.03;6.10;;;22.70;23.30;;;;;;5126157;27;46712;-80
2023/09/06 10:32:47;;;;;;;9.93;5.97;;;22.60;22.60;;;;;;5126166;27;46478;-80
2023/09/06 10:35:25;;;;;;;11.30;5.60;;;22.60;23.50;;;;;;5130108;27;46539;-84
2023/09/06 10:38:04;;;;;;;7.50;5.13;;;22.60;23.30;;;;;;5109762;27;48385;-80
2023/09/06 10:40:51;;;;;;;17.60;6.20;;;22.70;23.20;;;;;;5125367;27;46223;-82
2023/09/06 10:43:17;;;;;;;9.20;5.90;;;23.00;22.00;;;;;;5128730;27;46481;-83
2023/09/06 10:45:58;;;;;;;11.00;5.73;;;23.00;22.60;;;;;;5113866;27;46616;-82
2023/09/06 10:48:25;;;;;;;11.00;6.17;;;22.80;22.40;;;;;;5109769;27;46621;-80
2023/09/06 10:51:20;;;;;;;9.30;5.60;;;22.90;21.70;;;;;;5108859;27;46484;-79
2023/09/06 10:53:48;;;;;;;8.67;5.43;;;22.90;22.50;;;;;;5090789;27;46549;-79
2023/09/06 10:56:27;;;;;;;7.23;4.83;;;23.10;22.30;;;;;;5134019;27;46588;-80
2023/09/06 10:58:57;;;;;;;8.37;5.47;;;23.10;21.70;;;;;;5130054;27;46463;-81
2023/09/06 11:01:22;;;;;;;11.30;5.50;;;23.10;20.30;;;;;;5114778;27;46693;-81
2023/09/06 11:03:51;;;;;;;10.57;5.13;;;23.10;21.10;;;;;;5131492;27;46567;-81
2023/09/06 11:06:18;;;;;;;7.57;4.63;;;23.20;20.90;;;;;;5130214;27;47554;-81
2023/09/06 11:08:46;;;;;;;14.27;5.17;;;23.60;19.30;;;;;;5132913;27;46591;-79
2023/09/06 11:11:14;;;;;;;7.47;4.70;;;23.60;18.90;;;;;;5121581;27;46395;-79
2023/09/06 11:13:42;;;;;;;9.23;5.40;;;23.60;19.80;;;;;;5125123;27;46309;-82
2023/09/06 11:16:15;;;;;;;12.17;5.27;;;23.50;18.30;;;;;;5118956;27;46732;-82
2023/09/06 11:18:49;;;;;;;9.17;5.07;;;23.60;19.00;;;;;;5136834;27;46655;-82
2023/09/06 11:21:24;;;;;;;9.63;4.73;;;23.70;17.50;;;;;;5126432;27;45955;-81
2023/09/06 11:23:51;;;;;;;7.40;4.60;;;23.70;18.00;;;;;;5128374;27;45788;-87
2023/09/06 11:26:19;;;;;;;8.23;4.00;;;23.70;16.40;;;;;;5143688;27;46519;-81
2023/09/06 11:28:47;;;;;;;8.80;4.50;;;23.80;16.20;;;;;;5122044;27;48084;-81
2023/09/06 11:31:29;;;;;;;6.43;4.40;;;23.80;14.70;;;;;;5133652;27;46582;-82
2023/09/06 11:34:01;;;;;;;9.07;4.23;;;23.70;15.20;;;;;;5136510;27;47225;-81
2023/09/06 11:36:30;;;;;;;8.63;4.57;;;23.80;13.10;;;;;;5137762;27;46404;-83
2023/09/06 11:39:15;;;;;;;9.30;4.50;;;24.00;14.20;;;;;;5139941;27;47135;-82
2023/09/06 11:41:41;;;;;;;7.17;3.80;;;23.80;11.40;;;;;;5134200;27;46990;-82
2023/09/06 11:44:10;;;;;;;7.67;3.07;;;23.90;12.10;;;;;;5133419;27;46471;-81
2023/09/06 11:46:38;;;;;;;6.90;4.30;;;23.80;11.90;;;;;;5135262;27;46476;-82
2023/09/06 11:49:06;;;;;;;8.10;4.00;;;23.90;13.20;;;;;;5115680;27;48252;-81
2023/09/06 11:51:33;;;;;;;7.40;4.10;;;24.10;11.60;;;;;;5120797;27;46548;-82
2023/09/06 11:54:00;;;;;;;10.20;4.37;;;;;;;;;;5112917;27;46826;-83
2023/09/06 11:56:31;;;;;;;12.27;4.70;;;24.20;11.00;;;;;;5133091;27;46373;-82
2023/09/06 11:58:59;;;;;;;8.50;3.93;;;24.20;11.90;;;;;;5131024;27;46397;-79
2023/09/06 12:01:26;;;;;;;9.13;4.13;;;24.30;11.70;;;;;;5115010;27;46769;-78
2023/09/06 12:03:58;;;;;;;10.10;4.30;;;24.20;12.40;;;;;;5134204;27;46856;-76
2023/09/06 12:06:27;;;;;;;8.83;4.10;;;24.40;12.30;;;;;;5131350;27;46483;-81
2023/09/06 12:08:53;;;;;;;7.13;4.60;;;24.30;12.20;;;;;;5131050;27;46675;-79
2023/09/06 12:11:21;;;;;;;8.00;4.20;;;24.30;11.10;;;;;;5130723;27;46785;-80
2023/09/06 12:13:47;;;;;;;7.00;4.00;;;24.30;11.90;;;;;;5109252;27;46459;-80
2023/09/06 12:16:13;;;;;;;7.07;4.07;;;24.40;12.20;;;;;;5128591;27;46579;-80
2023/09/06 12:18:39;;;;;;;8.10;4.40;;;24.40;11.00;;;;;;5112317;27;47688;-79
2023/09/06 12:21:05;;;;;;;6.83;4.20;;;24.40;11.80;;;;;;5112060;27;46663;-76
2023/09/06 12:23:32;;;;;;;6.20;4.30;;;24.50;10.70;;;;;;5128590;27;46459;-81
2023/09/06 12:26:00;;;;;;;8.90;5.00;;;24.50;11.30;;;;;;5130099;27;46416;-82
2023/09/06 12:28:27;;;;;;;9.90;4.60;;;24.50;11.50;;;;;;5128530;27;46398;-81
2023/09/06 12:30:58;;;;;;;7.03;4.47;;;24.60;11.30;;;;;;5128493;27;46508;-80
2023/09/06 12:33:27;;;;;;;5.93;4.07;;;24.70;10.60;;;;;;5129794;27;47562;-79
2023/09/06 12:36:04;;;;;;;9.87;4.57;;;24.70;11.40;;;;;;5123110;27;46761;-82
2023/09/06 12:38:31;;;;;;;12.77;4.50;;;24.70;10.90;;;;;;5111757;27;48674;-82
2023/09/06 12:40:58;;;;;;;6.23;4.03;;;25.40;11.30;;;;;;5115143;27;46750;-81
2023/09/06 12:43:26;;;;;;;11.73;4.27;;;24.90;10.00;;;;;;5110808;27;46509;-83